sensor_id;sensor_type;location;lat;lon;timestamp;P1;durP1;ratioP1;P2;durP2;ratioP2
23282;SDS011;11810;51.178;3.878;2023-05-13T00:01:29;83.05;;;52.38;;
23282;SDS011;11810;51.178;3.878;2023-05-13T00:03:55;77.50;;;51.03;;
23282;SDS011;11810;51.178;3.878;2023-05-13T00:06:21;84.78;;;51.95;;
23282;SDS011;11810;51.178;3.878;2023-05-13T00:08:47;84.88;;;51.88;;
23282;SDS011;11810;51.178;3.878;2023-05-13T00:11:13;80.38;;;52.75;;
23282;SDS011;11810;51.178;3.878;2023-05-13T00:13:39;89.43;;;54.30;;
23282;SDS011;11810;51.178;3.878;2023-05-13T00:16:05;85.95;;;52.78;;
23282;SDS011;11810;51.178;3.878;2023-05-13T00:18:31;82.68;;;52.90;;
23282;SDS011;11810;51.178;3.878;2023-05-13T00:20:57;84.10;;;54.70;;
23282;SDS011;11810;51.178;3.878;2023-05-13T00:23:22;85.57;;;53.03;;
23282;SDS011;11810;51.178;3.878;2023-05-13T00:25:48;93.65;;;56.92;;
23282;SDS011;11810;51.178;3.878;2023-05-13T00:28:14;83.93;;;53.90;;
23282;SDS011;11810;51.178;3.878;2023-05-13T00:30:41;78.47;;;51.75;;
23282;SDS011;11810;51.178;3.878;2023-05-13T00:33:08;84.57;;;53.88;;
23282;SDS011;11810;51.178;3.878;2023-05-13T00:35:34;89.38;;;53.70;;
23282;SDS011;11810;51.178;3.878;2023-05-13T00:38:00;85.05;;;53.15;;
23282;SDS011;11810;51.178;3.878;2023-05-13T00:40:26;81.50;;;53.25;;
23282;SDS011;11810;51.178;3.878;2023-05-13T00:42:52;87.53;;;54.60;;
23282;SDS011;11810;51.178;3.878;2023-05-13T00:45:19;84.68;;;55.50;;
23282;SDS011;11810;51.178;3.878;2023-05-13T00:47:45;78.70;;;51.58;;
23282;SDS011;11810;51.178;3.878;2023-05-13T00:50:13;88.57;;;54.83;;
23282;SDS011;11810;51.178;3.878;2023-05-13T00:52:40;94.28;;;56.25;;
23282;SDS011;11810;51.178;3.878;2023-05-13T00:55:07;97.68;;;59.50;;
23282;SDS011;11810;51.178;3.878;2023-05-13T00:57:34;95.55;;;56.97;;
23282;SDS011;11810;51.178;3.878;2023-05-13T01:00:01;93.03;;;57.38;;
23282;SDS011;11810;51.178;3.878;2023-05-13T01:02:34;91.95;;;57.85;;
23282;SDS011;11810;51.178;3.878;2023-05-13T01:07:48;89.72;;;56.17;;
23282;SDS011;11810;51.178;3.878;2023-05-13T01:13:12;78.55;;;53.08;;
23282;SDS011;11810;51.178;3.878;2023-05-13T01:15:55;80.68;;;51.78;;
23282;SDS011;11810;51.178;3.878;2023-05-13T01:18:39;85.53;;;52.83;;
23282;SDS011;11810;51.178;3.878;2023-05-13T01:21:34;80.50;;;51.95;;
23282;SDS011;11810;51.178;3.878;2023-05-13T01:24:04;81.28;;;52.45;;
23282;SDS011;11810;51.178;3.878;2023-05-13T01:26:30;82.63;;;51.83;;
23282;SDS011;11810;51.178;3.878;2023-05-13T01:28:56;71.13;;;49.67;;
23282;SDS011;11810;51.178;3.878;2023-05-13T01:31:22;77.18;;;52.63;;
23282;SDS011;11810;51.178;3.878;2023-05-13T01:33:48;87.90;;;54.33;;
23282;SDS011;11810;51.178;3.878;2023-05-13T01:36:14;94.47;;;57.03;;
23282;SDS011;11810;51.178;3.878;2023-05-13T01:38:41;91.07;;;54.95;;
23282;SDS011;11810;51.178;3.878;2023-05-13T01:41:08;85.75;;;56.72;;
23282;SDS011;11810;51.178;3.878;2023-05-13T01:43:34;96.65;;;59.45;;
23282;SDS011;11810;51.178;3.878;2023-05-13T01:46:00;100.75;;;61.38;;
23282;SDS011;11810;51.178;3.878;2023-05-13T01:48:26;86.80;;;57.05;;
23282;SDS011;11810;51.178;3.878;2023-05-13T01:50:52;96.18;;;59.75;;
23282;SDS011;11810;51.178;3.878;2023-05-13T01:53:18;93.28;;;58.53;;
23282;SDS011;11810;51.178;3.878;2023-05-13T01:55:44;98.70;;;59.08;;
23282;SDS011;11810;51.178;3.878;2023-05-13T01:58:10;87.82;;;55.33;;
23282;SDS011;11810;51.178;3.878;2023-05-13T02:00:36;92.38;;;58.33;;
23282;SDS011;11810;51.178;3.878;2023-05-13T02:03:02;92.60;;;56.65;;
23282;SDS011;11810;51.178;3.878;2023-05-13T02:05:28;87.93;;;56.00;;
23282;SDS011;11810;51.178;3.878;2023-05-13T02:07:57;89.88;;;56.05;;
23282;SDS011;11810;51.178;3.878;2023-05-13T02:10:23;83.80;;;55.80;;
23282;SDS011;11810;51.178;3.878;2023-05-13T02:12:48;100.15;;;56.60;;
23282;SDS011;11810;51.178;3.878;2023-05-13T02:15:14;89.90;;;53.63;;
23282;SDS011;11810;51.178;3.878;2023-05-13T02:17:40;87.82;;;54.97;;
23282;SDS011;11810;51.178;3.878;2023-05-13T02:20:06;94.47;;;59.50;;
23282;SDS011;11810;51.178;3.878;2023-05-13T02:22:33;87.93;;;56.90;;
23282;SDS011;11810;51.178;3.878;2023-05-13T02:24:59;94.68;;;58.83;;
23282;SDS011;11810;51.178;3.878;2023-05-13T02:27:25;88.63;;;56.92;;
23282;SDS011;11810;51.178;3.878;2023-05-13T02:29:51;107.72;;;64.15;;
23282;SDS011;11810;51.178;3.878;2023-05-13T02:32:17;91.82;;;57.58;;
23282;SDS011;11810;51.178;3.878;2023-05-13T02:34:43;91.97;;;57.65;;
23282;SDS011;11810;51.178;3.878;2023-05-13T02:37:08;87.80;;;58.95;;
23282;SDS011;11810;51.178;3.878;2023-05-13T02:39:34;84.07;;;56.67;;
23282;SDS011;11810;51.178;3.878;2023-05-13T02:42:00;86.78;;;55.75;;
23282;SDS011;11810;51.178;3.878;2023-05-13T02:44:27;88.47;;;53.97;;
23282;SDS011;11810;51.178;3.878;2023-05-13T02:46:53;84.45;;;56.25;;
23282;SDS011;11810;51.178;3.878;2023-05-13T02:49:18;89.68;;;57.22;;
23282;SDS011;11810;51.178;3.878;2023-05-13T02:51:44;95.22;;;58.15;;
23282;SDS011;11810;51.178;3.878;2023-05-13T02:54:10;93.18;;;60.65;;
23282;SDS011;11810;51.178;3.878;2023-05-13T02:56:36;98.72;;;62.92;;
23282;SDS011;11810;51.178;3.878;2023-05-13T02:59:02;93.95;;;61.25;;
23282;SDS011;11810;51.178;3.878;2023-05-13T03:01:28;98.45;;;63.55;;
23282;SDS011;11810;51.178;3.878;2023-05-13T03:03:54;102.85;;;64.35;;
23282;SDS011;11810;51.178;3.878;2023-05-13T03:06:20;104.07;;;64.07;;
23282;SDS011;11810;51.178;3.878;2023-05-13T03:08:46;103.30;;;64.03;;
23282;SDS011;11810;51.178;3.878;2023-05-13T03:11:12;98.85;;;63.13;;
23282;SDS011;11810;51.178;3.878;2023-05-13T03:13:38;109.15;;;62.17;;
23282;SDS011;11810;51.178;3.878;2023-05-13T03:16:04;107.78;;;63.17;;
23282;SDS011;11810;51.178;3.878;2023-05-13T03:18:30;92.40;;;59.50;;
23282;SDS011;11810;51.178;3.878;2023-05-13T03:20:56;97.50;;;60.53;;
23282;SDS011;11810;51.178;3.878;2023-05-13T03:23:22;93.00;;;59.85;;
23282;SDS011;11810;51.178;3.878;2023-05-13T03:25:48;96.55;;;61.53;;
23282;SDS011;11810;51.178;3.878;2023-05-13T03:28:14;85.75;;;57.40;;
23282;SDS011;11810;51.178;3.878;2023-05-13T03:30:40;84.05;;;57.92;;
23282;SDS011;11810;51.178;3.878;2023-05-13T03:33:07;87.10;;;55.55;;
23282;SDS011;11810;51.178;3.878;2023-05-13T03:35:33;85.40;;;56.42;;
23282;SDS011;11810;51.178;3.878;2023-05-13T03:37:59;89.05;;;56.95;;
23282;SDS011;11810;51.178;3.878;2023-05-13T03:40:25;84.57;;;57.72;;
23282;SDS011;11810;51.178;3.878;2023-05-13T03:42:51;79.85;;;53.63;;
23282;SDS011;11810;51.178;3.878;2023-05-13T03:45:17;77.63;;;52.50;;
23282;SDS011;11810;51.178;3.878;2023-05-13T03:47:43;76.03;;;52.30;;
23282;SDS011;11810;51.178;3.878;2023-05-13T03:50:09;70.30;;;50.85;;
23282;SDS011;11810;51.178;3.878;2023-05-13T03:52:36;84.85;;;53.10;;
23282;SDS011;11810;51.178;3.878;2023-05-13T03:55:02;69.30;;;49.97;;
23282;SDS011;11810;51.178;3.878;2023-05-13T03:57:28;64.28;;;46.70;;
23282;SDS011;11810;51.178;3.878;2023-05-13T03:59:53;61.67;;;46.45;;
23282;SDS011;11810;51.178;3.878;2023-05-13T04:02:19;64.03;;;46.00;;
23282;SDS011;11810;51.178;3.878;2023-05-13T04:04:46;58.45;;;45.10;;
23282;SDS011;11810;51.178;3.878;2023-05-13T04:07:12;61.05;;;45.22;;
23282;SDS011;11810;51.178;3.878;2023-05-13T04:09:38;59.58;;;44.90;;
23282;SDS011;11810;51.178;3.878;2023-05-13T04:12:04;57.85;;;43.65;;
23282;SDS011;11810;51.178;3.878;2023-05-13T04:14:30;55.05;;;41.53;;
23282;SDS011;11810;51.178;3.878;2023-05-13T04:16:56;53.13;;;42.05;;
23282;SDS011;11810;51.178;3.878;2023-05-13T04:19:22;56.75;;;41.92;;
23282;SDS011;11810;51.178;3.878;2023-05-13T04:21:48;55.22;;;42.50;;
23282;SDS011;11810;51.178;3.878;2023-05-13T04:24:14;54.08;;;42.75;;
23282;SDS011;11810;51.178;3.878;2023-05-13T04:26:40;57.03;;;42.92;;
23282;SDS011;11810;51.178;3.878;2023-05-13T04:29:06;60.92;;;45.28;;
23282;SDS011;11810;51.178;3.878;2023-05-13T04:31:32;62.25;;;44.85;;
23282;SDS011;11810;51.178;3.878;2023-05-13T04:33:58;61.58;;;45.90;;
23282;SDS011;11810;51.178;3.878;2023-05-13T04:36:25;62.83;;;43.00;;
23282;SDS011;11810;51.178;3.878;2023-05-13T04:38:50;57.58;;;43.58;;
23282;SDS011;11810;51.178;3.878;2023-05-13T04:41:16;59.35;;;43.28;;
23282;SDS011;11810;51.178;3.878;2023-05-13T04:43:42;55.22;;;41.08;;
23282;SDS011;11810;51.178;3.878;2023-05-13T04:46:08;56.42;;;43.53;;
23282;SDS011;11810;51.178;3.878;2023-05-13T04:48:34;54.90;;;42.72;;
23282;SDS011;11810;51.178;3.878;2023-05-13T04:51:00;59.60;;;42.60;;
23282;SDS011;11810;51.178;3.878;2023-05-13T04:53:26;55.65;;;41.70;;
23282;SDS011;11810;51.178;3.878;2023-05-13T04:55:52;58.90;;;41.60;;
23282;SDS011;11810;51.178;3.878;2023-05-13T04:58:24;65.05;;;43.88;;
23282;SDS011;11810;51.178;3.878;2023-05-13T05:00:52;56.60;;;41.65;;
23282;SDS011;11810;51.178;3.878;2023-05-13T05:03:18;54.50;;;40.05;;
23282;SDS011;11810;51.178;3.878;2023-05-13T05:05:45;54.08;;;40.10;;
23282;SDS011;11810;51.178;3.878;2023-05-13T05:08:11;51.00;;;38.28;;
23282;SDS011;11810;51.178;3.878;2023-05-13T05:10:37;55.05;;;36.45;;
23282;SDS011;11810;51.178;3.878;2023-05-13T05:13:03;52.53;;;35.22;;
23282;SDS011;11810;51.178;3.878;2023-05-13T05:15:29;46.22;;;34.95;;
23282;SDS011;11810;51.178;3.878;2023-05-13T05:17:55;44.65;;;33.33;;
23282;SDS011;11810;51.178;3.878;2023-05-13T05:20:21;47.05;;;30.63;;
23282;SDS011;11810;51.178;3.878;2023-05-13T05:22:48;40.60;;;29.63;;
23282;SDS011;11810;51.178;3.878;2023-05-13T05:25:15;33.53;;;26.50;;
23282;SDS011;11810;51.178;3.878;2023-05-13T05:27:40;34.05;;;26.38;;
23282;SDS011;11810;51.178;3.878;2023-05-13T05:30:07;36.75;;;24.02;;
23282;SDS011;11810;51.178;3.878;2023-05-13T05:32:34;33.83;;;21.98;;
23282;SDS011;11810;51.178;3.878;2023-05-13T05:35:00;23.58;;;20.08;;
23282;SDS011;11810;51.178;3.878;2023-05-13T05:37:28;24.33;;;19.65;;
23282;SDS011;11810;51.178;3.878;2023-05-13T05:39:54;27.48;;;18.35;;
23282;SDS011;11810;51.178;3.878;2023-05-13T05:42:20;24.45;;;18.77;;
23282;SDS011;11810;51.178;3.878;2023-05-13T05:44:46;22.33;;;17.20;;
23282;SDS011;11810;51.178;3.878;2023-05-13T05:47:12;18.98;;;16.17;;
23282;SDS011;11810;51.178;3.878;2023-05-13T05:49:38;24.73;;;16.73;;
23282;SDS011;11810;51.178;3.878;2023-05-13T05:52:04;21.98;;;16.27;;
23282;SDS011;11810;51.178;3.878;2023-05-13T05:54:30;22.73;;;16.02;;
23282;SDS011;11810;51.178;3.878;2023-05-13T05:56:56;21.17;;;15.60;;
23282;SDS011;11810;51.178;3.878;2023-05-13T05:59:22;23.55;;;15.65;;
23282;SDS011;11810;51.178;3.878;2023-05-13T06:01:48;21.73;;;14.48;;
23282;SDS011;11810;51.178;3.878;2023-05-13T06:04:14;22.45;;;14.48;;
23282;SDS011;11810;51.178;3.878;2023-05-13T06:06:41;19.02;;;14.00;;
23282;SDS011;11810;51.178;3.878;2023-05-13T06:09:07;26.10;;;14.13;;
23282;SDS011;11810;51.178;3.878;2023-05-13T06:11:33;17.88;;;14.23;;
23282;SDS011;11810;51.178;3.878;2023-05-13T06:13:59;24.83;;;15.07;;
23282;SDS011;11810;51.178;3.878;2023-05-13T06:16:25;20.35;;;14.05;;
23282;SDS011;11810;51.178;3.878;2023-05-13T06:18:51;24.95;;;14.88;;
23282;SDS011;11810;51.178;3.878;2023-05-13T06:21:18;21.60;;;13.88;;
23282;SDS011;11810;51.178;3.878;2023-05-13T06:23:43;19.50;;;14.00;;
23282;SDS011;11810;51.178;3.878;2023-05-13T06:26:10;23.00;;;14.57;;
23282;SDS011;11810;51.178;3.878;2023-05-13T06:28:35;21.77;;;15.07;;
23282;SDS011;11810;51.178;3.878;2023-05-13T06:31:01;23.30;;;14.85;;
23282;SDS011;11810;51.178;3.878;2023-05-13T06:33:27;22.92;;;15.60;;
23282;SDS011;11810;51.178;3.878;2023-05-13T06:35:53;23.80;;;15.02;;
23282;SDS011;11810;51.178;3.878;2023-05-13T06:38:19;22.75;;;13.93;;
23282;SDS011;11810;51.178;3.878;2023-05-13T06:40:45;19.65;;;14.63;;
23282;SDS011;11810;51.178;3.878;2023-05-13T06:43:11;22.50;;;14.63;;
23282;SDS011;11810;51.178;3.878;2023-05-13T06:45:38;20.58;;;14.25;;
23282;SDS011;11810;51.178;3.878;2023-05-13T06:48:04;22.20;;;14.50;;
23282;SDS011;11810;51.178;3.878;2023-05-13T06:50:30;19.55;;;14.65;;
23282;SDS011;11810;51.178;3.878;2023-05-13T06:52:56;20.50;;;13.68;;
23282;SDS011;11810;51.178;3.878;2023-05-13T06:55:22;22.98;;;14.18;;
23282;SDS011;11810;51.178;3.878;2023-05-13T06:57:48;24.05;;;14.13;;
23282;SDS011;11810;51.178;3.878;2023-05-13T07:00:15;28.52;;;13.30;;
23282;SDS011;11810;51.178;3.878;2023-05-13T07:02:41;24.05;;;14.18;;
23282;SDS011;11810;51.178;3.878;2023-05-13T07:05:08;25.92;;;13.88;;
23282;SDS011;11810;51.178;3.878;2023-05-13T07:07:35;21.90;;;13.63;;
23282;SDS011;11810;51.178;3.878;2023-05-13T07:10:01;24.42;;;12.63;;
23282;SDS011;11810;51.178;3.878;2023-05-13T07:12:28;25.45;;;13.35;;
23282;SDS011;11810;51.178;3.878;2023-05-13T07:14:54;21.90;;;13.73;;
23282;SDS011;11810;51.178;3.878;2023-05-13T07:17:20;25.02;;;13.68;;
23282;SDS011;11810;51.178;3.878;2023-05-13T07:19:46;19.45;;;12.93;;
23282;SDS011;11810;51.178;3.878;2023-05-13T07:22:11;21.67;;;12.70;;
23282;SDS011;11810;51.178;3.878;2023-05-13T07:24:37;23.50;;;12.98;;
23282;SDS011;11810;51.178;3.878;2023-05-13T07:27:05;25.88;;;12.85;;
23282;SDS011;11810;51.178;3.878;2023-05-13T07:29:32;29.35;;;12.45;;
23282;SDS011;11810;51.178;3.878;2023-05-13T07:32:02;21.02;;;13.13;;
23282;SDS011;11810;51.178;3.878;2023-05-13T07:34:29;21.05;;;13.15;;
23282;SDS011;11810;51.178;3.878;2023-05-13T07:36:55;22.75;;;13.02;;
23282;SDS011;11810;51.178;3.878;2023-05-13T07:39:21;23.27;;;12.45;;
23282;SDS011;11810;51.178;3.878;2023-05-13T07:41:47;15.65;;;13.05;;
23282;SDS011;11810;51.178;3.878;2023-05-13T07:44:13;25.85;;;13.48;;
23282;SDS011;11810;51.178;3.878;2023-05-13T07:46:39;24.17;;;11.77;;
23282;SDS011;11810;51.178;3.878;2023-05-13T07:49:05;23.98;;;12.27;;
23282;SDS011;11810;51.178;3.878;2023-05-13T07:51:33;23.83;;;11.45;;
23282;SDS011;11810;51.178;3.878;2023-05-13T07:53:59;21.48;;;11.63;;
23282;SDS011;11810;51.178;3.878;2023-05-13T07:56:25;25.63;;;11.88;;
23282;SDS011;11810;51.178;3.878;2023-05-13T07:58:50;21.98;;;11.82;;
23282;SDS011;11810;51.178;3.878;2023-05-13T08:01:16;23.90;;;12.38;;
23282;SDS011;11810;51.178;3.878;2023-05-13T08:03:42;29.10;;;12.73;;
23282;SDS011;11810;51.178;3.878;2023-05-13T08:06:08;21.75;;;12.40;;
23282;SDS011;11810;51.178;3.878;2023-05-13T08:08:33;18.63;;;12.85;;
23282;SDS011;11810;51.178;3.878;2023-05-13T08:10:59;23.65;;;13.10;;
23282;SDS011;11810;51.178;3.878;2023-05-13T08:13:25;23.88;;;13.23;;
23282;SDS011;11810;51.178;3.878;2023-05-13T08:15:51;24.27;;;12.73;;
23282;SDS011;11810;51.178;3.878;2023-05-13T08:18:16;25.73;;;12.07;;
23282;SDS011;11810;51.178;3.878;2023-05-13T08:20:42;32.60;;;13.63;;
23282;SDS011;11810;51.178;3.878;2023-05-13T08:23:08;22.98;;;12.65;;
23282;SDS011;11810;51.178;3.878;2023-05-13T08:25:34;22.92;;;12.30;;
23282;SDS011;11810;51.178;3.878;2023-05-13T08:28:01;30.48;;;12.88;;
23282;SDS011;11810;51.178;3.878;2023-05-13T08:30:27;22.98;;;11.27;;
23282;SDS011;11810;51.178;3.878;2023-05-13T08:32:53;21.38;;;11.10;;
23282;SDS011;11810;51.178;3.878;2023-05-13T08:35:20;20.23;;;11.95;;
23282;SDS011;11810;51.178;3.878;2023-05-13T08:37:45;21.13;;;11.80;;
23282;SDS011;11810;51.178;3.878;2023-05-13T08:40:11;24.17;;;11.27;;
23282;SDS011;11810;51.178;3.878;2023-05-13T08:42:39;23.20;;;10.63;;
23282;SDS011;11810;51.178;3.878;2023-05-13T08:45:07;19.20;;;11.52;;
23282;SDS011;11810;51.178;3.878;2023-05-13T08:47:49;23.58;;;11.40;;
23282;SDS011;11810;51.178;3.878;2023-05-13T08:50:20;20.83;;;10.63;;
23282;SDS011;11810;51.178;3.878;2023-05-13T08:52:48;19.52;;;10.95;;
23282;SDS011;11810;51.178;3.878;2023-05-13T08:55:15;22.60;;;11.45;;
23282;SDS011;11810;51.178;3.878;2023-05-13T08:57:43;25.58;;;12.05;;
23282;SDS011;11810;51.178;3.878;2023-05-13T09:00:09;28.40;;;12.63;;
23282;SDS011;11810;51.178;3.878;2023-05-13T09:02:36;21.25;;;11.75;;
23282;SDS011;11810;51.178;3.878;2023-05-13T09:05:05;21.17;;;11.23;;
23282;SDS011;11810;51.178;3.878;2023-05-13T09:07:36;19.88;;;11.07;;
23282;SDS011;11810;51.178;3.878;2023-05-13T09:10:03;21.05;;;10.32;;
23282;SDS011;11810;51.178;3.878;2023-05-13T09:15:19;22.38;;;10.93;;
23282;SDS011;11810;51.178;3.878;2023-05-13T09:17:47;26.40;;;10.88;;
23282;SDS011;11810;51.178;3.878;2023-05-13T09:20:17;22.05;;;10.50;;
23282;SDS011;11810;51.178;3.878;2023-05-13T09:25:11;19.33;;;10.57;;
23282;SDS011;11810;51.178;3.878;2023-05-13T09:27:39;21.80;;;11.27;;
23282;SDS011;11810;51.178;3.878;2023-05-13T09:30:06;18.40;;;10.07;;
23282;SDS011;11810;51.178;3.878;2023-05-13T09:32:33;26.00;;;10.98;;
23282;SDS011;11810;51.178;3.878;2023-05-13T09:35:12;23.40;;;10.80;;
23282;SDS011;11810;51.178;3.878;2023-05-13T09:37:44;20.30;;;10.98;;
23282;SDS011;11810;51.178;3.878;2023-05-13T09:40:14;27.98;;;11.70;;
23282;SDS011;11810;51.178;3.878;2023-05-13T09:42:42;31.13;;;12.23;;
23282;SDS011;11810;51.178;3.878;2023-05-13T09:45:10;19.80;;;10.38;;
23282;SDS011;11810;51.178;3.878;2023-05-13T09:47:38;20.40;;;10.02;;
23282;SDS011;11810;51.178;3.878;2023-05-13T09:50:05;16.60;;;9.65;;
23282;SDS011;11810;51.178;3.878;2023-05-13T09:52:32;23.02;;;10.63;;
23282;SDS011;11810;51.178;3.878;2023-05-13T09:55:00;23.60;;;10.85;;
23282;SDS011;11810;51.178;3.878;2023-05-13T09:57:29;23.40;;;10.35;;
23282;SDS011;11810;51.178;3.878;2023-05-13T09:59:59;24.48;;;10.88;;
23282;SDS011;11810;51.178;3.878;2023-05-13T10:02:29;21.23;;;10.55;;
23282;SDS011;11810;51.178;3.878;2023-05-13T10:04:55;20.92;;;10.38;;
23282;SDS011;11810;51.178;3.878;2023-05-13T10:07:22;21.45;;;10.85;;
23282;SDS011;11810;51.178;3.878;2023-05-13T10:09:50;20.08;;;10.07;;
23282;SDS011;11810;51.178;3.878;2023-05-13T10:12:19;23.08;;;11.63;;
23282;SDS011;11810;51.178;3.878;2023-05-13T10:14:50;24.25;;;11.45;;
23282;SDS011;11810;51.178;3.878;2023-05-13T10:17:20;21.98;;;10.48;;
23282;SDS011;11810;51.178;3.878;2023-05-13T10:19:48;22.48;;;11.60;;
23282;SDS011;11810;51.178;3.878;2023-05-13T10:22:17;22.35;;;10.80;;
23282;SDS011;11810;51.178;3.878;2023-05-13T10:24:51;21.55;;;10.35;;
23282;SDS011;11810;51.178;3.878;2023-05-13T10:27:19;24.60;;;10.73;;
23282;SDS011;11810;51.178;3.878;2023-05-13T10:29:46;25.85;;;11.77;;
23282;SDS011;11810;51.178;3.878;2023-05-13T10:32:15;23.70;;;11.77;;
23282;SDS011;11810;51.178;3.878;2023-05-13T10:34:41;25.50;;;10.50;;
23282;SDS011;11810;51.178;3.878;2023-05-13T10:37:22;21.63;;;10.68;;
23282;SDS011;11810;51.178;3.878;2023-05-13T10:45:35;19.08;;;10.52;;
23282;SDS011;11810;51.178;3.878;2023-05-13T10:48:09;21.58;;;10.20;;
23282;SDS011;11810;51.178;3.878;2023-05-13T10:50:36;23.30;;;12.00;;
23282;SDS011;11810;51.178;3.878;2023-05-13T10:53:08;28.73;;;11.98;;
23282;SDS011;11810;51.178;3.878;2023-05-13T10:55:43;24.55;;;12.75;;
23282;SDS011;11810;51.178;3.878;2023-05-13T10:58:12;27.17;;;12.20;;
23282;SDS011;11810;51.178;3.878;2023-05-13T11:00:40;27.50;;;12.48;;
23282;SDS011;11810;51.178;3.878;2023-05-13T11:03:08;22.23;;;11.20;;
23282;SDS011;11810;51.178;3.878;2023-05-13T11:05:43;39.55;;;13.90;;
23282;SDS011;11810;51.178;3.878;2023-05-13T11:08:11;26.30;;;13.63;;
23282;SDS011;11810;51.178;3.878;2023-05-13T11:11:00;23.83;;;12.25;;
23282;SDS011;11810;51.178;3.878;2023-05-13T11:13:35;25.73;;;11.45;;
23282;SDS011;11810;51.178;3.878;2023-05-13T11:16:03;26.35;;;10.50;;
23282;SDS011;11810;51.178;3.878;2023-05-13T11:18:32;25.77;;;11.52;;
23282;SDS011;11810;51.178;3.878;2023-05-13T11:21:02;29.00;;;10.60;;
23282;SDS011;11810;51.178;3.878;2023-05-13T11:23:32;23.40;;;12.20;;
23282;SDS011;11810;51.178;3.878;2023-05-13T11:26:14;21.57;;;11.73;;
23282;SDS011;11810;51.178;3.878;2023-05-13T11:31:26;27.27;;;14.00;;
23282;SDS011;11810;51.178;3.878;2023-05-13T11:39:29;30.02;;;13.07;;
23282;SDS011;11810;51.178;3.878;2023-05-13T11:41:56;28.98;;;13.38;;
23282;SDS011;11810;51.178;3.878;2023-05-13T11:44:25;27.13;;;12.43;;
23282;SDS011;11810;51.178;3.878;2023-05-13T11:46:59;28.42;;;13.35;;
23282;SDS011;11810;51.178;3.878;2023-05-13T11:49:33;24.92;;;13.90;;
23282;SDS011;11810;51.178;3.878;2023-05-13T11:52:04;24.70;;;13.85;;
23282;SDS011;11810;51.178;3.878;2023-05-13T11:54:31;23.15;;;13.23;;
23282;SDS011;11810;51.178;3.878;2023-05-13T11:56:57;24.88;;;13.45;;
23282;SDS011;11810;51.178;3.878;2023-05-13T11:59:23;27.73;;;13.57;;
23282;SDS011;11810;51.178;3.878;2023-05-13T12:02:07;27.65;;;14.45;;
23282;SDS011;11810;51.178;3.878;2023-05-13T12:04:33;27.08;;;12.88;;
23282;SDS011;11810;51.178;3.878;2023-05-13T12:06:59;26.55;;;13.48;;
23282;SDS011;11810;51.178;3.878;2023-05-13T12:09:25;24.15;;;12.07;;
23282;SDS011;11810;51.178;3.878;2023-05-13T12:11:51;26.02;;;14.75;;
23282;SDS011;11810;51.178;3.878;2023-05-13T12:14:21;24.58;;;12.95;;
23282;SDS011;11810;51.178;3.878;2023-05-13T12:16:47;23.80;;;13.63;;
23282;SDS011;11810;51.178;3.878;2023-05-13T12:19:13;28.25;;;14.02;;
23282;SDS011;11810;51.178;3.878;2023-05-13T12:21:39;22.63;;;14.70;;
23282;SDS011;11810;51.178;3.878;2023-05-13T12:24:18;29.73;;;13.82;;
23282;SDS011;11810;51.178;3.878;2023-05-13T12:26:45;21.65;;;14.18;;
23282;SDS011;11810;51.178;3.878;2023-05-13T12:29:12;23.08;;;13.13;;
23282;SDS011;11810;51.178;3.878;2023-05-13T12:31:40;22.73;;;13.43;;
23282;SDS011;11810;51.178;3.878;2023-05-13T12:34:07;22.95;;;13.13;;
23282;SDS011;11810;51.178;3.878;2023-05-13T12:36:37;26.23;;;13.38;;
23282;SDS011;11810;51.178;3.878;2023-05-13T12:39:07;25.02;;;15.23;;
23282;SDS011;11810;51.178;3.878;2023-05-13T12:41:38;22.73;;;14.57;;
23282;SDS011;11810;51.178;3.878;2023-05-13T12:46:35;25.23;;;16.20;;
23282;SDS011;11810;51.178;3.878;2023-05-13T12:49:02;27.45;;;15.27;;
23282;SDS011;11810;51.178;3.878;2023-05-13T12:51:29;24.15;;;15.30;;
23282;SDS011;11810;51.178;3.878;2023-05-13T12:53:55;28.98;;;15.85;;
23282;SDS011;11810;51.178;3.878;2023-05-13T12:56:22;26.63;;;14.82;;
23282;SDS011;11810;51.178;3.878;2023-05-13T12:58:50;23.92;;;15.10;;
23282;SDS011;11810;51.178;3.878;2023-05-13T13:01:19;24.17;;;15.90;;
23282;SDS011;11810;51.178;3.878;2023-05-13T13:03:45;25.38;;;14.55;;
23282;SDS011;11810;51.178;3.878;2023-05-13T13:06:11;29.17;;;15.77;;
23282;SDS011;11810;51.178;3.878;2023-05-13T13:08:38;33.58;;;17.58;;
23282;SDS011;11810;51.178;3.878;2023-05-13T13:11:04;27.38;;;16.02;;
23282;SDS011;11810;51.178;3.878;2023-05-13T13:13:30;20.55;;;14.43;;
23282;SDS011;11810;51.178;3.878;2023-05-13T13:15:57;27.25;;;15.35;;
23282;SDS011;11810;51.178;3.878;2023-05-13T13:18:23;25.45;;;16.02;;
23282;SDS011;11810;51.178;3.878;2023-05-13T13:20:50;26.55;;;15.57;;
23282;SDS011;11810;51.178;3.878;2023-05-13T13:23:17;25.75;;;13.93;;
23282;SDS011;11810;51.178;3.878;2023-05-13T13:25:44;22.83;;;13.90;;
23282;SDS011;11810;51.178;3.878;2023-05-13T13:28:10;23.42;;;12.77;;
23282;SDS011;11810;51.178;3.878;2023-05-13T13:30:36;25.05;;;14.00;;
23282;SDS011;11810;51.178;3.878;2023-05-13T13:33:02;25.70;;;13.00;;
23282;SDS011;11810;51.178;3.878;2023-05-13T13:35:28;22.55;;;11.85;;
23282;SDS011;11810;51.178;3.878;2023-05-13T13:37:54;29.58;;;13.27;;
23282;SDS011;11810;51.178;3.878;2023-05-13T13:40:20;24.13;;;12.40;;
23282;SDS011;11810;51.178;3.878;2023-05-13T13:42:46;25.52;;;13.43;;
23282;SDS011;11810;51.178;3.878;2023-05-13T13:45:12;22.52;;;12.40;;
23282;SDS011;11810;51.178;3.878;2023-05-13T13:47:39;22.60;;;12.60;;
23282;SDS011;11810;51.178;3.878;2023-05-13T13:50:05;19.58;;;12.65;;
23282;SDS011;11810;51.178;3.878;2023-05-13T13:52:31;21.90;;;13.45;;
23282;SDS011;11810;51.178;3.878;2023-05-13T13:54:57;22.63;;;13.13;;
23282;SDS011;11810;51.178;3.878;2023-05-13T13:57:23;22.73;;;13.70;;
23282;SDS011;11810;51.178;3.878;2023-05-13T13:59:49;23.25;;;13.40;;
23282;SDS011;11810;51.178;3.878;2023-05-13T14:02:15;26.35;;;14.98;;
23282;SDS011;11810;51.178;3.878;2023-05-13T14:04:41;25.38;;;15.70;;
23282;SDS011;11810;51.178;3.878;2023-05-13T14:07:07;24.80;;;16.98;;
23282;SDS011;11810;51.178;3.878;2023-05-13T14:09:33;27.17;;;14.23;;
23282;SDS011;11810;51.178;3.878;2023-05-13T14:11:59;29.40;;;15.65;;
23282;SDS011;11810;51.178;3.878;2023-05-13T14:14:25;25.52;;;13.77;;
23282;SDS011;11810;51.178;3.878;2023-05-13T14:16:51;23.27;;;14.02;;
23282;SDS011;11810;51.178;3.878;2023-05-13T14:19:17;20.65;;;12.30;;
23282;SDS011;11810;51.178;3.878;2023-05-13T14:21:46;25.52;;;13.40;;
23282;SDS011;11810;51.178;3.878;2023-05-13T14:24:12;21.10;;;12.77;;
23282;SDS011;11810;51.178;3.878;2023-05-13T14:26:38;24.05;;;12.70;;
23282;SDS011;11810;51.178;3.878;2023-05-13T14:29:04;20.70;;;12.27;;
23282;SDS011;11810;51.178;3.878;2023-05-13T14:31:30;27.27;;;13.15;;
23282;SDS011;11810;51.178;3.878;2023-05-13T14:33:55;27.65;;;13.50;;
23282;SDS011;11810;51.178;3.878;2023-05-13T14:36:22;19.20;;;11.48;;
23282;SDS011;11810;51.178;3.878;2023-05-13T14:38:50;25.95;;;12.30;;
23282;SDS011;11810;51.178;3.878;2023-05-13T14:41:17;26.25;;;12.73;;
23282;SDS011;11810;51.178;3.878;2023-05-13T14:43:44;21.35;;;11.77;;
23282;SDS011;11810;51.178;3.878;2023-05-13T14:46:13;20.20;;;12.27;;
23282;SDS011;11810;51.178;3.878;2023-05-13T14:48:39;26.60;;;12.88;;